This is the latest recevied weather packets stored in our database for station/object IU6BJT. If no packets are shown the sender has not sent any weather packets the latest 10 day(s).
| Time | Temp. | Humidity | Pressure | Rain* | Wind** | Luminosity | Snow |
|---|---|---|---|---|---|---|---|
| 1777359019 | 18.33° C | 63% | 1015.5 hPa | 0 mm | - | - | - |
| 1777354233 | 13.33° C | 81% | 1015.4 hPa | 0 mm | - | - | - |
| 1777353650 | 12.78° C | 82% | 1015.3 hPa | 0 mm | - | - | - |
| 1777347617 | 11.67° C | 88% | 1015 hPa | 0 mm | - | - | - |
| 1777346451 | 11.67° C | 88% | 1015 hPa | 0 mm | - | - | - |
| 1777343435 | 11.67° C | 89% | 1015.3 hPa | 0 mm | - | - | - |
| 1777339836 | 12.78° C | 87% | 1015.5 hPa | 0 mm | - | - | - |
| 1777338025 | 12.78° C | 87% | 1015.6 hPa | 0 mm | - | - | - |
| 1777336874 | 12.78° C | 88% | 1015.6 hPa | 0 mm | - | - | - |
| 1777335020 | 12.78° C | 87% | 1015.8 hPa | 0 mm | - | - | - |
| 1777332040 | 13.33° C | 85% | 1015.8 hPa | 0 mm | - | - | - |
| 1777329636 | 14.44° C | 82% | 1015.8 hPa | 0 mm | - | - | - |
| 1777329031 | 14.44° C | 82% | 1015.6 hPa | 0 mm | - | - | - |
| 1777326027 | 15° C | 80% | 1015.6 hPa | 0 mm | - | - | - |
| 1777325422 | 15° C | 81% | 1015.6 hPa | 0 mm | - | - | - |
| 1777321219 | 15.56° C | 82% | 1016.1 hPa | 0 mm | - | - | - |
| 1777317622 | 16.11° C | 82% | 1016.2 hPa | 0 mm | - | - | - |
| 1777314030 | 18.33° C | 75% | 1015.6 hPa | 0 mm | - | - | - |
| 1777312218 | 18.89° C | 72% | 1015.6 hPa | 0 mm | - | - | - |
| 1777309825 | 20° C | 69% | 1015.5 hPa | 0 mm | - | - | - |
| 1777304420 | 21.11° C | 56% | 1015.9 hPa | 0 mm | - | - | - |
| 1777297850 | 21.11° C | 56% | 1016.8 hPa | 0 mm | - | - | - |
| 1777296022 | 21.11° C | 54% | 1016.9 hPa | 0 mm | - | - | - |
| 1777289430 | 21.67° C | 56% | 1017.6 hPa | 0 mm | - | - | - |
| 1777288244 | 22.22° C | 50% | 1017.7 hPa | 0 mm | - | - | - |
* Rain latest hour (hover to see other rain measurements)
** Current wind speed in m/s (hover to see current wind gust speed)